createdAt,value
2022-08-04T00:02:05.838Z,43.51
2022-08-04T00:04:44.358Z,43.78
2022-08-04T00:07:20.031Z,43.40
2022-08-04T00:10:09.986Z,43.76
2022-08-04T00:12:42.362Z,43.86
2022-08-04T00:15:16.623Z,43.92
2022-08-04T00:17:50.253Z,44.14
2022-08-04T00:20:21.139Z,43.71
2022-08-04T00:22:53.240Z,43.96
2022-08-04T00:25:21.088Z,43.63
2022-08-04T00:27:49.194Z,43.68
2022-08-04T00:30:16.911Z,43.47
2022-08-04T00:32:44.897Z,43.23
2022-08-04T00:35:15.873Z,43.34
2022-08-04T00:37:45.807Z,43.15
2022-08-04T00:40:26.060Z,43.79
2022-08-04T00:43:09.723Z,43.59
2022-08-04T00:46:15.922Z,43.31
2022-08-04T00:48:57.829Z,43.86
2022-08-04T00:51:37.106Z,43.52
2022-08-04T00:54:12.413Z,43.52
2022-08-04T00:57:33.736Z,43.22
2022-08-04T01:00:07.564Z,43.57
2022-08-04T01:02:41.106Z,43.38
2022-08-04T01:05:21.447Z,43.23
2022-08-04T01:08:12.906Z,43.81
2022-08-04T01:10:54.341Z,43.20
2022-08-04T01:13:44.780Z,43.29
2022-08-04T01:16:18.076Z,43.94
2022-08-04T01:18:56.757Z,43.57
2022-08-04T01:21:50.606Z,43.27
2022-08-04T01:24:46.909Z,42.39
2022-08-04T01:27:28.527Z,42.73
2022-08-04T01:30:01.583Z,42.73
2022-08-04T01:32:33.591Z,43.16
2022-08-04T01:35:09.777Z,43.15
2022-08-04T01:37:52.768Z,44.27
2022-08-04T01:40:22.511Z,44.67
2022-08-04T01:42:54.109Z,44.81
2022-08-04T01:45:26.089Z,45.02
2022-08-04T01:47:55.307Z,45.56
2022-08-04T01:50:24.317Z,45.06
2022-08-04T01:52:55.191Z,45.99
2022-08-04T01:55:23.588Z,46.42
2022-08-04T01:58:12.895Z,46.21
2022-08-04T02:00:53.227Z,46.35
2022-08-04T02:03:23.746Z,46.77
2022-08-04T02:06:27.167Z,47.46
2022-08-04T02:09:05.358Z,46.87
2022-08-04T02:11:33.200Z,47.17
2022-08-04T02:14:07.789Z,47.51
2022-08-04T02:16:45.482Z,47.69
2022-08-04T02:19:31.280Z,47.84
2022-08-04T02:22:08.055Z,47.90
2022-08-04T02:24:44.340Z,47.68
2022-08-04T02:27:14.669Z,47.37
2022-08-04T02:29:52.498Z,47.22
2022-08-04T02:32:28.743Z,46.36
2022-08-04T02:35:05.417Z,46.62
2022-08-04T02:37:34.172Z,47.62
2022-08-04T02:40:05.525Z,48.06
2022-08-04T02:42:34.083Z,47.58
2022-08-04T02:45:02.287Z,46.58
2022-08-04T02:48:29.803Z,46.10
2022-08-04T02:50:28.242Z,46.92
2022-08-04T02:52:59.365Z,46.19
2022-08-04T02:55:30.115Z,46.05
2022-08-04T02:58:00.603Z,46.47
2022-08-04T03:00:29.259Z,47.23
2022-08-04T03:03:08.464Z,47.43
2022-08-04T03:06:01.496Z,47.48
2022-08-04T03:08:52.060Z,48.21
2022-08-04T03:11:57.753Z,47.47
2022-08-04T03:15:10.076Z,47.42
2022-08-04T03:18:14.158Z,48.19
2022-08-04T03:21:16.673Z,48.15
2022-08-04T03:24:20.520Z,47.86
2022-08-04T03:27:11.148Z,47.38
2022-08-04T03:30:06.020Z,46.58
2022-08-04T03:33:21.163Z,46.30
2022-08-04T03:36:33.515Z,47.12
2022-08-04T03:39:22.595Z,47.59
2022-08-04T03:42:08.262Z,48.22
2022-08-04T03:44:58.722Z,47.13
2022-08-04T03:47:45.960Z,46.45
2022-08-04T03:51:35.136Z,46.99
2022-08-04T03:54:33.075Z,47.55
2022-08-04T03:57:31.566Z,46.83
2022-08-04T04:00:09.732Z,46.01
2022-08-04T04:02:57.981Z,46.50
2022-08-04T04:05:59.004Z,46.45
2022-08-04T04:08:54.773Z,46.94
2022-08-04T04:11:58.853Z,46.50
2022-08-04T04:14:53.262Z,46.79
2022-08-04T04:17:50.115Z,47.05
2022-08-04T04:20:48.106Z,47.55
2022-08-04T04:23:36.459Z,48.07
2022-08-04T04:26:33.326Z,48.40
2022-08-04T04:29:14.624Z,48.50
2022-08-04T04:32:00.569Z,49.09
2022-08-04T04:34:46.003Z,49.32
2022-08-04T04:37:22.449Z,49.14
2022-08-04T04:40:04.924Z,49.02
2022-08-04T04:42:44.279Z,48.85
2022-08-04T04:45:21.364Z,49.16
2022-08-04T04:48:08.662Z,49.04
2022-08-04T04:50:53.192Z,49.21
2022-08-04T04:53:29.365Z,48.93
2022-08-04T04:56:06.981Z,48.94
2022-08-04T04:58:38.992Z,49.31
2022-08-04T05:01:25.484Z,48.81
2022-08-04T05:04:19.170Z,49.39
2022-08-04T05:07:07.527Z,48.96
2022-08-04T05:09:53.333Z,49.32
2022-08-04T05:14:31.289Z,48.66
2022-08-04T05:15:46.068Z,49.58
2022-08-04T05:18:18.588Z,49.05
2022-08-04T05:20:52.271Z,49.45
2022-08-04T05:23:24.709Z,48.70
2022-08-04T05:25:59.464Z,49.10
2022-08-04T05:28:34.627Z,49.61
2022-08-04T05:31:17.181Z,48.98
2022-08-04T05:33:49.977Z,48.42
2022-08-04T05:36:35.343Z,48.95
2022-08-04T05:39:13.159Z,48.85
2022-08-04T05:41:45.746Z,49.71
2022-08-04T05:44:17.808Z,49.51
2022-08-04T05:46:53.661Z,48.90
2022-08-04T05:49:23.731Z,48.80
2022-08-04T05:51:53.131Z,48.50
2022-08-04T05:54:22.359Z,48.62
2022-08-04T05:56:50.969Z,47.88
2022-08-04T05:59:21.609Z,47.97
2022-08-04T06:01:55.949Z,48.62
2022-08-04T06:04:28.977Z,48.41
2022-08-04T06:06:56.756Z,47.90
2022-08-04T06:09:24.543Z,48.47
2022-08-04T06:12:00.482Z,48.44
2022-08-04T06:14:36.816Z,48.47
2022-08-04T06:18:32.145Z,48.74
2022-08-04T06:20:19.037Z,48.64
2022-08-04T06:22:47.564Z,47.63
2022-08-04T06:25:20.485Z,48.18
2022-08-04T06:27:49.627Z,48.29
2022-08-04T06:30:20.091Z,47.91
2022-08-04T06:33:03.493Z,48.00
2022-08-04T06:35:33.446Z,47.62
2022-08-04T06:38:02.937Z,47.18
2022-08-04T06:40:33.729Z,47.45
2022-08-04T06:43:03.985Z,47.80
2022-08-04T06:45:35.411Z,47.43
2022-08-04T06:48:04.405Z,47.68
2022-08-04T06:51:27.121Z,47.51
2022-08-04T06:53:21.232Z,48.01
2022-08-04T06:55:50.253Z,48.22
2022-08-04T06:58:19.694Z,47.41
2022-08-04T07:00:50.542Z,47.30
2022-08-04T07:03:21.546Z,47.20
2022-08-04T07:05:50.148Z,47.57
2022-08-04T07:08:18.207Z,47.06
2022-08-04T07:10:46.509Z,46.94
2022-08-04T07:13:15.155Z,47.02
2022-08-04T07:15:46.055Z,47.14
2022-08-04T07:18:15.325Z,47.17
2022-08-04T07:20:44.562Z,46.88
2022-08-04T07:23:17.228Z,46.41
2022-08-04T07:25:59.492Z,45.56
2022-08-04T07:28:31.319Z,45.57
2022-08-04T07:30:59.705Z,45.70
2022-08-04T07:33:29.252Z,45.99
2022-08-04T07:36:05.958Z,46.12
2022-08-04T07:38:49.745Z,46.23
2022-08-04T07:41:38.033Z,45.95
2022-08-04T07:44:07.814Z,46.32
2022-08-04T07:46:35.687Z,46.04
2022-08-04T07:49:05.400Z,46.20
2022-08-04T07:51:35.261Z,46.16
2022-08-04T07:54:04.002Z,46.15
2022-08-04T07:56:32.492Z,46.58
2022-08-04T07:59:01.941Z,46.18
2022-08-04T08:01:29.648Z,45.64
2022-08-04T08:04:01.592Z,45.96
2022-08-04T08:06:36.469Z,46.01
2022-08-04T08:09:13.833Z,46.02
2022-08-04T08:12:38.442Z,45.96
2022-08-04T08:14:35.393Z,45.67
2022-08-04T08:17:04.170Z,45.19
2022-08-04T08:19:32.442Z,43.99
2022-08-04T08:22:02.305Z,43.92
2022-08-04T08:24:31.772Z,44.29
2022-08-04T08:27:00.134Z,43.92
2022-08-04T08:29:30.234Z,44.26
2022-08-04T08:32:02.698Z,43.51
2022-08-04T08:34:32.073Z,42.66
2022-08-04T08:37:06.088Z,42.85
2022-08-04T08:39:39.991Z,43.04
2022-08-04T08:42:28.952Z,43.18
2022-08-04T08:45:49.621Z,43.23
2022-08-04T08:48:52.766Z,42.78
2022-08-04T08:51:55.137Z,42.84
2022-08-04T08:55:04.882Z,43.27
2022-08-04T08:57:59.770Z,43.61
2022-08-04T09:00:38.044Z,43.97
2022-08-04T09:03:25.108Z,43.85
2022-08-04T09:06:04.082Z,43.71
2022-08-04T09:09:06.240Z,43.88
2022-08-04T09:11:43.083Z,43.46
2022-08-04T09:14:24.953Z,43.09
2022-08-04T09:16:56.668Z,43.31
2022-08-04T09:19:38.287Z,43.50
2022-08-04T09:22:17.268Z,42.96
2022-08-04T09:24:52.898Z,41.83
2022-08-04T09:27:23.380Z,41.57
2022-08-04T09:30:08.109Z,42.38
2022-08-04T09:32:48.459Z,42.22
2022-08-04T09:35:25.215Z,42.57
2022-08-04T09:38:11.051Z,42.90
2022-08-04T09:40:55.526Z,42.68
2022-08-04T09:43:57.014Z,42.69
2022-08-04T09:46:34.603Z,42.18
2022-08-04T09:49:08.723Z,42.23
2022-08-04T09:51:56.720Z,41.91
2022-08-04T09:54:34.490Z,41.31
2022-08-04T09:57:14.273Z,41.12
2022-08-04T09:59:47.561Z,41.39
2022-08-04T10:02:20.183Z,41.26
2022-08-04T10:04:50.299Z,41.04
2022-08-04T10:07:37.023Z,41.13
2022-08-04T10:10:16.932Z,40.73
2022-08-04T10:13:04.607Z,40.79
2022-08-04T10:15:41.424Z,39.84
2022-08-04T10:18:30.640Z,39.58
2022-08-04T10:21:15.230Z,40.05
2022-08-04T10:24:13.583Z,40.18
2022-08-04T10:26:53.100Z,39.86
2022-08-04T10:29:29.701Z,39.93
2022-08-04T10:32:01.536Z,40.09
2022-08-04T10:34:40.601Z,39.60
2022-08-04T10:37:20.270Z,37.54
2022-08-04T10:40:09.364Z,37.37
2022-08-04T10:42:42.938Z,36.86
2022-08-04T10:45:17.763Z,36.68
2022-08-04T10:47:55.559Z,34.82
2022-08-04T10:50:28.355Z,34.31
2022-08-04T10:53:03.481Z,34.50
2022-08-04T10:56:06.477Z,36.16
2022-08-04T10:58:46.922Z,36.60
2022-08-04T11:02:01.650Z,36.54
2022-08-04T11:04:27.167Z,37.31
2022-08-04T11:07:00.449Z,36.49
2022-08-04T11:09:29.862Z,36.70
2022-08-04T11:12:05.027Z,36.40
2022-08-04T11:14:38.827Z,36.56
2022-08-04T11:17:12.078Z,34.75
2022-08-04T11:19:53.276Z,35.25
2022-08-04T11:22:27.111Z,35.61
2022-08-04T11:25:01.070Z,35.30
2022-08-04T11:27:35.934Z,34.37
2022-08-04T11:30:06.679Z,34.31
2022-08-04T11:32:42.407Z,33.63
2022-08-04T11:35:18.420Z,34.62
2022-08-04T11:37:52.435Z,34.61
2022-08-04T11:40:26.353Z,35.22
2022-08-04T11:43:01.959Z,34.22
2022-08-04T11:45:42.145Z,34.02
2022-08-04T11:48:14.314Z,34.60
2022-08-04T11:50:53.466Z,33.65
2022-08-04T11:53:26.389Z,32.47
2022-08-04T11:56:11.077Z,32.37
2022-08-04T11:58:39.560Z,32.27
2022-08-04T12:01:19.181Z,32.73
2022-08-04T12:04:03.662Z,32.61
2022-08-04T12:06:56.728Z,33.17
2022-08-04T12:09:46.890Z,33.14
2022-08-04T12:12:24.239Z,33.11
2022-08-04T12:14:59.340Z,33.54
2022-08-04T12:17:51.998Z,33.07
2022-08-04T12:20:32.215Z,33.59
2022-08-04T12:23:16.363Z,32.69
2022-08-04T12:25:49.819Z,33.61
2022-08-04T12:28:23.418Z,33.38
2022-08-04T12:31:03.338Z,33.87
2022-08-04T12:33:41.221Z,34.03
2022-08-04T12:36:34.620Z,33.91
2022-08-04T12:39:10.441Z,33.81
2022-08-04T12:41:45.582Z,34.44
2022-08-04T12:44:37.397Z,34.25
2022-08-04T12:47:27.555Z,34.00
2022-08-04T12:50:00.799Z,34.63
2022-08-04T12:53:01.106Z,34.47
2022-08-04T12:55:19.148Z,34.24
2022-08-04T12:57:50.587Z,33.94
2022-08-04T13:00:29.824Z,34.20
2022-08-04T13:03:05.644Z,34.06
2022-08-04T13:05:39.148Z,33.71
2022-08-04T13:08:08.544Z,33.69
2022-08-04T13:10:41.190Z,32.78
2022-08-04T13:13:17.910Z,32.68
2022-08-04T13:15:56.516Z,33.12
2022-08-04T13:18:30.144Z,32.73
2022-08-04T13:21:19.485Z,33.22
2022-08-04T13:24:10.880Z,32.42
2022-08-04T13:26:54.753Z,32.28
2022-08-04T13:30:00.473Z,32.16
2022-08-04T13:32:22.240Z,31.86
2022-08-04T13:34:53.540Z,32.16
2022-08-04T13:37:26.524Z,31.88
2022-08-04T13:39:56.790Z,31.69
2022-08-04T13:42:27.429Z,31.72
2022-08-04T13:44:59.058Z,32.91
2022-08-04T13:47:31.064Z,32.56
2022-08-04T13:50:16.432Z,32.66
2022-08-04T13:52:45.596Z,32.48
2022-08-04T13:55:24.191Z,31.89
2022-08-04T13:57:56.765Z,32.48
2022-08-04T14:00:30.218Z,32.31
2022-08-04T14:03:23.281Z,31.95
2022-08-04T14:06:15.063Z,31.67
2022-08-04T14:08:55.013Z,30.57
2022-08-04T14:12:07.145Z,31.17
2022-08-04T14:14:23.284Z,30.88
2022-08-04T14:17:04.561Z,30.67
2022-08-04T14:19:53.011Z,30.73
2022-08-04T14:22:35.772Z,30.84
2022-08-04T14:25:09.143Z,31.33
2022-08-04T14:27:46.351Z,30.21
2022-08-04T14:30:23.393Z,30.54
2022-08-04T14:34:01.574Z,29.80
2022-08-04T14:35:58.390Z,29.21
2022-08-04T14:38:42.075Z,29.06
2022-08-04T14:41:09.848Z,28.26
2022-08-04T14:43:44.283Z,28.54
2022-08-04T14:46:12.676Z,27.39
2022-08-04T14:49:01.270Z,27.40
2022-08-04T14:51:36.369Z,27.41
2022-08-04T14:54:08.975Z,26.97
2022-08-04T14:56:47.667Z,26.79
2022-08-04T14:59:15.496Z,27.10
2022-08-04T15:01:44.223Z,27.63
2022-08-04T15:04:14.854Z,27.01
2022-08-04T15:06:43.089Z,26.30
2022-08-04T15:09:11.642Z,27.55
2022-08-04T15:11:43.314Z,26.12
2022-08-04T15:14:36.458Z,25.18
2022-08-04T15:16:59.270Z,24.66
2022-08-04T15:19:28.550Z,24.65
2022-08-04T15:21:56.727Z,24.49
2022-08-04T15:24:24.474Z,24.72
2022-08-04T15:26:57.541Z,25.04
2022-08-04T15:29:29.633Z,24.64
2022-08-04T15:32:18.409Z,23.65
2022-08-04T15:34:49.193Z,25.20
2022-08-04T15:37:26.486Z,24.58
2022-08-04T15:40:00.762Z,24.03
2022-08-04T15:42:39.157Z,25.08
2022-08-04T15:45:21.051Z,26.35
2022-08-04T15:48:26.064Z,24.78
2022-08-04T15:51:15.144Z,24.39
2022-08-04T15:54:33.179Z,23.60
2022-08-04T15:57:02.458Z,23.37
2022-08-04T16:00:03.733Z,24.68
2022-08-04T16:02:39.348Z,24.78
2022-08-04T16:05:34.442Z,24.98
2022-08-04T16:08:11.793Z,26.04
2022-08-04T16:10:42.444Z,25.74
2022-08-04T16:13:13.889Z,26.77
2022-08-04T16:15:46.844Z,24.99
2022-08-04T16:18:26.553Z,24.57
2022-08-04T16:20:57.170Z,25.79
2022-08-04T16:23:57.946Z,26.68
2022-08-04T16:26:55.171Z,27.03
2022-08-04T16:29:42.347Z,26.77
2022-08-04T16:32:12.203Z,26.91
2022-08-04T16:34:49.892Z,26.81
2022-08-04T16:37:22.877Z,25.28
2022-08-04T16:40:44.651Z,25.39
2022-08-04T16:54:03.603Z,26.60
2022-08-04T17:09:28.741Z,27.99
2022-08-04T17:14:48.037Z,27.78
2022-08-04T17:17:16.658Z,27.96
2022-08-04T17:19:53.410Z,27.67
2022-08-04T17:22:21.325Z,27.29
2022-08-04T17:24:50.634Z,26.55
2022-08-04T17:28:09.157Z,26.69
2022-08-04T17:30:27.530Z,26.74
2022-08-04T17:32:55.340Z,26.86
2022-08-04T17:35:23.375Z,26.95
2022-08-04T17:37:52.786Z,26.64
2022-08-04T17:40:25.595Z,26.74
2022-08-04T17:44:02.868Z,27.52
2022-08-04T17:46:28.678Z,27.64
2022-08-04T17:49:09.707Z,28.27
2022-08-04T17:52:05.605Z,28.65
2022-08-04T17:54:37.030Z,29.64
2022-08-04T17:57:15.693Z,29.71
2022-08-04T17:59:57.743Z,29.64
2022-08-04T18:02:31.871Z,29.74
2022-08-04T18:05:06.758Z,30.27
2022-08-04T18:08:38.395Z,30.63
2022-08-04T18:10:52.183Z,30.39
2022-08-04T18:13:23.111Z,32.77
2022-08-04T18:16:02.428Z,34.03
2022-08-04T18:18:30.897Z,31.59
2022-08-04T18:21:02.791Z,30.17
2022-08-04T18:23:32.774Z,29.38
2022-08-04T18:26:02.456Z,29.78
2022-08-04T18:28:33.595Z,30.23
2022-08-04T18:31:03.136Z,29.27
2022-08-04T18:33:39.749Z,29.21
2022-08-04T18:38:58.860Z,29.73
2022-08-04T18:41:27.658Z,29.53
2022-08-04T18:43:56.785Z,29.65
2022-08-04T18:46:26.943Z,30.95
2022-08-04T18:48:55.013Z,30.67
2022-08-04T18:51:25.131Z,30.55
2022-08-04T18:53:59.432Z,30.41
2022-08-04T18:56:29.882Z,29.76
2022-08-04T18:59:00.316Z,30.61
2022-08-04T19:04:33.098Z,30.20
2022-08-04T19:07:23.189Z,30.45
2022-08-04T19:09:53.939Z,29.92
2022-08-04T19:12:26.638Z,29.50
2022-08-04T19:14:58.633Z,29.12
2022-08-04T19:17:53.718Z,29.24
2022-08-04T19:20:26.316Z,29.04
2022-08-04T19:24:26.897Z,29.64
2022-08-04T19:25:58.729Z,29.55
2022-08-04T19:31:22.692Z,29.49
2022-08-04T19:34:04.350Z,29.59
2022-08-04T19:36:33.097Z,29.80
2022-08-04T19:39:04.188Z,29.86
2022-08-04T19:42:06.226Z,30.11
2022-08-04T19:44:29.488Z,30.09
2022-08-04T19:47:00.908Z,30.09
2022-08-04T19:50:04.324Z,29.51
2022-08-04T19:52:34.280Z,29.50
2022-08-04T19:55:10.107Z,30.10
2022-08-04T19:57:46.081Z,30.01
2022-08-04T20:00:17.515Z,29.88
2022-08-04T20:03:01.868Z,29.90
2022-08-04T20:05:52.784Z,30.43
2022-08-04T20:08:21.303Z,29.95
2022-08-04T20:10:51.612Z,30.20
2022-08-04T20:13:20.989Z,30.40
2022-08-04T20:15:57.677Z,29.73
2022-08-04T20:18:36.574Z,30.14
2022-08-04T20:21:19.492Z,30.29
2022-08-04T20:23:53.065Z,30.13
2022-08-04T20:26:21.891Z,30.40
2022-08-04T20:28:51.827Z,29.70
2022-08-04T20:31:20.915Z,30.32
2022-08-04T20:33:55.006Z,30.46
2022-08-04T20:36:24.166Z,30.43
2022-08-04T20:39:09.714Z,30.50
2022-08-04T20:41:44.951Z,30.61
2022-08-04T20:44:12.747Z,29.05
2022-08-04T20:46:40.448Z,28.71
2022-08-04T20:49:08.246Z,30.64
2022-08-04T20:51:40.186Z,30.97
2022-08-04T20:54:16.914Z,31.53
2022-08-04T20:56:51.421Z,30.98
2022-08-04T20:59:19.562Z,31.82
2022-08-04T21:01:49.646Z,31.73
2022-08-04T21:04:35.979Z,32.66
2022-08-04T21:07:07.434Z,32.39
2022-08-04T21:09:38.376Z,33.10
2022-08-04T21:12:27.860Z,32.97
2022-08-04T21:14:58.100Z,33.13
2022-08-04T21:17:59.455Z,33.77
2022-08-04T21:20:14.172Z,34.29
2022-08-04T21:22:59.530Z,33.61
2022-08-04T21:25:29.599Z,33.96
2022-08-04T21:27:58.636Z,34.21
2022-08-04T21:30:27.131Z,34.38
2022-08-04T21:32:55.686Z,34.25
2022-08-04T21:35:36.753Z,34.38
2022-08-04T21:38:16.504Z,34.96
2022-08-04T21:40:53.472Z,35.44
2022-08-04T21:43:23.516Z,34.97
2022-08-04T21:45:55.713Z,35.45
2022-08-04T21:48:27.642Z,35.55
2022-08-04T21:50:56.243Z,35.23
2022-08-04T21:53:27.745Z,35.92
2022-08-04T21:56:05.024Z,35.77
2022-08-04T21:58:35.082Z,36.18
2022-08-04T22:01:06.106Z,36.17
2022-08-04T22:03:53.781Z,36.16
2022-08-04T22:06:28.830Z,36.50
2022-08-04T22:08:58.593Z,36.62
2022-08-04T22:11:48.901Z,36.69
2022-08-04T22:14:17.460Z,36.97
2022-08-04T22:16:56.449Z,37.04
2022-08-04T22:19:39.868Z,37.07
2022-08-04T22:22:13.637Z,37.62
2022-08-04T22:24:58.835Z,38.71
2022-08-04T22:27:47.724Z,39.96
2022-08-04T22:30:23.447Z,39.07
2022-08-04T22:32:51.304Z,39.32
2022-08-04T22:35:36.107Z,39.37
2022-08-04T22:38:24.340Z,39.25
2022-08-04T22:41:01.171Z,38.97
2022-08-04T22:43:32.654Z,39.60
2022-08-04T22:46:03.895Z,39.05
2022-08-04T22:48:32.435Z,39.61
2022-08-04T22:51:00.597Z,39.38
2022-08-04T22:53:28.389Z,39.48
2022-08-04T22:56:06.780Z,40.16
2022-08-04T22:58:40.093Z,39.54
2022-08-04T23:01:08.634Z,39.41
2022-08-04T23:03:38.644Z,39.48
2022-08-04T23:06:11.030Z,39.98
2022-08-04T23:08:43.029Z,40.17
2022-08-04T23:11:14.881Z,39.80
2022-08-04T23:13:44.066Z,39.69
2022-08-04T23:16:12.294Z,40.65
2022-08-04T23:18:42.092Z,40.86
2022-08-04T23:21:13.978Z,40.73
2022-08-04T23:23:45.386Z,40.21
2022-08-04T23:26:27.354Z,41.05
2022-08-04T23:28:57.063Z,41.13
2022-08-04T23:31:25.444Z,40.65
2022-08-04T23:34:12.318Z,41.07
2022-08-04T23:36:40.956Z,41.15
2022-08-04T23:39:10.489Z,41.37
2022-08-04T23:41:54.054Z,41.56
2022-08-04T23:44:28.172Z,41.77
2022-08-04T23:47:00.727Z,41.83
2022-08-04T23:49:44.482Z,41.39
2022-08-04T23:52:23.339Z,41.91
2022-08-04T23:54:59.401Z,41.71
2022-08-04T23:57:30.822Z,41.34
